createdAt,value
2019-05-02T00:01:01.772Z,13.77
2019-05-02T00:03:31.489Z,15.20
2019-05-02T00:06:03.000Z,15.33
2019-05-02T00:08:33.198Z,13.27
2019-05-02T00:11:02.958Z,16.00
2019-05-02T00:13:32.514Z,14.20
2019-05-02T00:16:02.070Z,14.50
2019-05-02T00:18:36.711Z,15.03
2019-05-02T00:21:03.701Z,14.93
2019-05-02T00:23:33.141Z,14.87
2019-05-02T00:26:02.648Z,16.00
2019-05-02T00:28:32.249Z,14.80
2019-05-02T00:31:01.859Z,15.70
2019-05-02T00:33:34.427Z,14.03
2019-05-02T00:36:02.300Z,15.37
2019-05-02T00:38:33.316Z,15.93
2019-05-02T00:41:03.736Z,15.00
2019-05-02T00:43:34.400Z,13.47
2019-05-02T00:46:04.619Z,13.90
2019-05-02T00:48:35.761Z,13.30
2019-05-02T00:51:07.876Z,18.83
2019-05-02T00:53:37.396Z,14.70
2019-05-02T00:56:09.091Z,16.07
2019-05-02T00:58:37.770Z,14.77
2019-05-02T01:01:08.693Z,17.20
2019-05-02T01:03:39.757Z,14.70
2019-05-02T01:06:13.716Z,14.70
2019-05-02T01:08:40.319Z,16.73
2019-05-02T01:11:09.772Z,13.93
2019-05-02T01:13:39.307Z,15.33
2019-05-02T01:16:10.035Z,17.50
2019-05-02T01:18:41.419Z,16.57
2019-05-02T01:21:10.679Z,17.10
2019-05-02T01:23:40.182Z,14.83
2019-05-02T01:26:11.239Z,15.53
2019-05-02T01:28:58.544Z,15.73
2019-05-02T01:31:29.391Z,14.60
2019-05-02T01:34:03.289Z,15.23
2019-05-02T01:36:50.815Z,15.83
2019-05-02T01:39:20.419Z,14.93
2019-05-02T01:41:49.912Z,15.27
2019-05-02T01:44:19.301Z,14.43
2019-05-02T01:46:48.826Z,13.97
2019-05-02T01:49:21.865Z,16.10
2019-05-02T01:51:49.364Z,15.53
2019-05-02T01:54:18.978Z,15.57
2019-05-02T01:56:48.279Z,15.57
2019-05-02T01:59:17.680Z,15.43
2019-05-02T02:01:47.183Z,15.93
2019-05-02T02:04:21.032Z,16.63
2019-05-02T02:06:47.830Z,13.90
2019-05-02T02:09:17.539Z,18.57
2019-05-02T02:11:47.154Z,15.10
2019-05-02T02:14:18.783Z,17.00
2019-05-02T02:16:47.902Z,15.93
2019-05-02T02:19:19.141Z,16.23
2019-05-02T02:21:57.419Z,14.03
2019-05-02T02:24:31.879Z,15.87
2019-05-02T02:27:01.380Z,15.17
2019-05-02T02:29:30.985Z,18.03
2019-05-02T02:32:00.457Z,17.57
2019-05-02T02:34:32.313Z,15.03
2019-05-02T02:37:05.264Z,16.40
2019-05-02T02:39:31.861Z,17.43
2019-05-02T02:42:01.572Z,14.97
2019-05-02T02:44:42.048Z,18.90
2019-05-02T02:47:18.288Z,21.60
2019-05-02T02:49:42.783Z,17.83
2019-05-02T02:52:12.105Z,17.93
2019-05-02T02:54:43.511Z,14.47
2019-05-02T02:57:20.556Z,14.83
2019-05-02T02:59:43.978Z,14.80
2019-05-02T03:02:13.286Z,15.73
2019-05-02T03:04:45.944Z,16.03
2019-05-02T03:07:24.159Z,15.63
2019-05-02T03:09:46.998Z,16.27
2019-05-02T03:12:20.917Z,17.93
2019-05-02T03:14:51.959Z,15.63
2019-05-02T03:17:26.555Z,14.83
2019-05-02T03:19:54.257Z,18.17
2019-05-02T03:22:23.751Z,16.80
2019-05-02T03:24:53.254Z,20.80
2019-05-02T03:27:22.851Z,17.47
2019-05-02T03:29:52.563Z,16.40
2019-05-02T03:32:33.342Z,16.27
2019-05-02T03:34:54.213Z,17.17
2019-05-02T03:37:23.943Z,17.20
2019-05-02T03:39:57.602Z,15.43
2019-05-02T03:42:24.486Z,16.77
2019-05-02T03:45:01.656Z,16.43
2019-05-02T03:47:26.154Z,17.33
2019-05-02T03:50:15.936Z,16.20
2019-05-02T03:52:46.542Z,14.50
2019-05-02T03:55:16.276Z,15.40
2019-05-02T03:57:46.109Z,15.27
2019-05-02T04:00:21.103Z,15.17
2019-05-02T04:02:53.287Z,17.00
2019-05-02T04:05:18.328Z,16.80
2019-05-02T04:07:47.891Z,15.07
2019-05-02T04:10:19.717Z,15.43
2019-05-02T04:12:53.255Z,17.47
2019-05-02T04:15:20.914Z,15.37
2019-05-02T04:17:50.520Z,16.43
2019-05-02T04:20:20.016Z,17.00
2019-05-02T04:22:50.774Z,15.63
2019-05-02T04:25:21.383Z,15.57
2019-05-02T04:27:50.679Z,14.83
2019-05-02T04:30:20.193Z,16.03
2019-05-02T04:32:55.830Z,16.20
2019-05-02T04:35:20.896Z,14.67
2019-05-02T04:37:50.239Z,15.00
2019-05-02T04:40:19.363Z,24.10
2019-05-02T04:42:51.257Z,18.33
2019-05-02T04:45:26.317Z,19.03
2019-05-02T04:47:59.002Z,17.43
2019-05-02T04:50:25.393Z,16.40
2019-05-02T04:52:54.098Z,15.90
2019-05-02T04:55:30.295Z,18.03
2019-05-02T04:57:54.763Z,17.53
2019-05-02T05:00:28.596Z,19.07
2019-05-02T05:02:58.194Z,17.63
2019-05-02T05:05:31.022Z,17.97
2019-05-02T05:07:58.817Z,21.13
2019-05-02T05:10:28.358Z,19.50
2019-05-02T05:12:57.824Z,20.57
2019-05-02T05:15:37.217Z,20.70
2019-05-02T05:17:58.329Z,18.47
2019-05-02T05:20:28.018Z,23.53
2019-05-02T05:22:58.145Z,21.60
2019-05-02T05:25:29.652Z,17.83
2019-05-02T05:28:05.651Z,23.90
2019-05-02T05:30:30.187Z,17.10
2019-05-02T05:32:59.644Z,18.53
2019-05-02T05:35:28.942Z,19.37
2019-05-02T05:37:58.165Z,22.20
2019-05-02T05:40:30.930Z,23.37
2019-05-02T05:43:02.694Z,20.67
2019-05-02T05:45:29.566Z,19.87
2019-05-02T05:48:01.062Z,19.23
2019-05-02T05:50:32.114Z,21.97
2019-05-02T05:53:01.254Z,21.70
2019-05-02T05:55:31.695Z,22.03
2019-05-02T05:58:11.849Z,19.80
2019-05-02T06:00:33.551Z,21.80
2019-05-02T06:03:13.028Z,20.37
2019-05-02T06:05:38.527Z,24.90
2019-05-02T06:08:05.136Z,24.70
2019-05-02T06:10:34.537Z,21.60
2019-05-02T06:13:05.230Z,24.53
2019-05-02T06:15:39.042Z,26.87
2019-05-02T06:18:06.333Z,24.47
2019-05-02T06:20:35.740Z,22.67
2019-05-02T06:23:05.239Z,24.70
2019-05-02T06:25:36.752Z,32.20
2019-05-02T06:28:06.827Z,30.30
2019-05-02T06:30:36.505Z,27.23
2019-05-02T06:33:06.011Z,27.80
2019-05-02T06:35:35.516Z,29.43
2019-05-02T06:38:04.902Z,37.07
2019-05-02T06:40:39.317Z,29.37
2019-05-02T06:43:09.792Z,28.40
2019-05-02T06:45:39.563Z,33.07
2019-05-02T06:48:08.258Z,32.57
2019-05-02T06:50:38.830Z,28.50
2019-05-02T06:54:00.721Z,26.27
2019-05-02T06:56:30.277Z,34.80
2019-05-02T06:59:01.471Z,31.17
2019-05-02T07:01:31.339Z,32.63
2019-05-02T07:04:03.998Z,35.10
2019-05-02T07:06:39.985Z,29.53
2019-05-02T07:09:04.391Z,26.83
2019-05-02T07:11:38.884Z,30.17
2019-05-02T07:14:13.052Z,27.07
2019-05-02T07:16:41.523Z,24.63
2019-05-02T07:19:12.626Z,23.00
2019-05-02T07:21:41.851Z,22.83
2019-05-02T07:24:11.114Z,22.80
2019-05-02T07:26:40.655Z,21.30
2019-05-02T07:29:09.842Z,20.37
2019-05-02T07:31:43.054Z,17.77
2019-05-02T07:34:12.876Z,19.50
2019-05-02T07:36:41.544Z,17.63
2019-05-02T07:39:11.254Z,16.97
2019-05-02T07:41:40.651Z,15.03
2019-05-02T07:44:10.255Z,15.90
2019-05-02T07:46:51.172Z,15.63
2019-05-02T07:49:10.819Z,16.70
2019-05-02T07:51:40.405Z,17.00
2019-05-02T07:54:09.808Z,11.77
2019-05-02T07:56:39.209Z,14.40
2019-05-02T07:59:08.713Z,12.17
2019-05-02T08:01:38.347Z,16.07
2019-05-02T08:04:11.014Z,11.13
2019-05-02T08:06:40.142Z,12.40
2019-05-02T08:09:10.014Z,12.90
2019-05-02T08:11:39.616Z,9.27
2019-05-02T08:14:09.117Z,10.77
2019-05-02T08:16:38.620Z,10.00
2019-05-02T08:19:08.131Z,8.00
2019-05-02T08:21:37.628Z,7.30
2019-05-02T08:24:07.239Z,10.10
2019-05-02T08:26:47.185Z,13.27
2019-05-02T08:29:16.689Z,9.30
2019-05-02T08:31:46.052Z,10.53
2019-05-02T08:34:17.236Z,7.53
2019-05-02T08:36:46.736Z,10.83
2019-05-02T08:39:16.105Z,7.60
2019-05-02T08:41:45.539Z,7.33
2019-05-02T08:44:16.811Z,8.10
2019-05-02T08:46:46.229Z,16.53
2019-05-02T08:49:18.878Z,8.50
2019-05-02T08:51:48.034Z,11.90
2019-05-02T08:54:17.572Z,9.20
2019-05-02T08:56:47.068Z,15.47
2019-05-02T08:59:19.705Z,20.90
2019-05-02T09:01:49.482Z,10.10
2019-05-02T09:04:18.964Z,11.17
2019-05-02T09:06:48.407Z,9.53
2019-05-02T09:09:17.969Z,14.27
2019-05-02T09:12:01.002Z,12.43
2019-05-02T09:14:18.514Z,16.50
2019-05-02T09:16:48.019Z,11.67
2019-05-02T09:19:21.342Z,16.97
2019-05-02T09:22:02.545Z,12.40
2019-05-02T09:24:33.227Z,9.40
2019-05-02T09:27:02.641Z,12.43
2019-05-02T09:29:32.755Z,12.77
2019-05-02T09:32:02.450Z,11.40
2019-05-02T09:34:33.083Z,16.07
2019-05-02T09:37:02.792Z,10.27
2019-05-02T09:39:36.414Z,11.07
2019-05-02T09:42:06.596Z,14.33
2019-05-02T09:44:34.588Z,13.73
2019-05-02T09:47:04.184Z,10.73
2019-05-02T09:49:33.587Z,15.07
2019-05-02T09:52:03.431Z,8.97
2019-05-02T09:54:36.912Z,12.17
2019-05-02T09:57:04.148Z,12.93
2019-05-02T09:59:33.722Z,13.30
2019-05-02T10:02:04.283Z,14.10
2019-05-02T10:04:34.910Z,15.27
2019-05-02T10:07:04.730Z,14.10
2019-05-02T10:09:34.225Z,12.10
2019-05-02T10:12:03.736Z,12.03
2019-05-02T10:14:33.449Z,12.77
2019-05-02T10:17:07.126Z,14.87
2019-05-02T10:19:34.095Z,10.63
2019-05-02T10:22:03.588Z,12.60
2019-05-02T10:24:33.196Z,9.60
2019-05-02T10:27:06.500Z,16.23
2019-05-02T10:29:33.644Z,14.10
2019-05-02T10:32:02.928Z,13.70
2019-05-02T10:34:32.953Z,10.40
2019-05-02T10:37:03.201Z,14.33
2019-05-02T10:39:33.938Z,10.67
2019-05-02T10:42:03.823Z,15.40
2019-05-02T10:44:36.473Z,14.83
2019-05-02T10:47:04.682Z,15.33
2019-05-02T10:49:35.616Z,13.63
2019-05-02T10:52:04.885Z,13.40
2019-05-02T10:54:37.566Z,13.43
2019-05-02T10:57:06.331Z,15.13
2019-05-02T10:59:35.777Z,15.17
2019-05-02T11:02:19.001Z,16.80
2019-05-02T11:04:50.043Z,12.03
2019-05-02T11:07:22.724Z,14.57
2019-05-02T11:10:06.996Z,18.10
2019-05-02T11:12:44.430Z,10.87
2019-05-02T11:15:14.579Z,14.70
2019-05-02T11:17:46.028Z,11.90
2019-05-02T11:20:15.548Z,17.75
2019-05-02T11:22:45.038Z,14.60
2019-05-02T11:25:14.432Z,13.90
2019-05-02T11:27:43.920Z,14.43
2019-05-02T11:30:16.727Z,11.83
2019-05-02T11:32:44.691Z,14.50
2019-05-02T11:35:14.094Z,12.80
2019-05-02T11:37:43.603Z,12.80
2019-05-02T11:40:13.211Z,10.58
2019-05-02T11:42:42.708Z,13.15
2019-05-02T11:45:12.595Z,13.40
2019-05-02T11:47:42.337Z,8.88
2019-05-02T11:50:11.970Z,7.37
2019-05-02T11:52:42.418Z,11.65
2019-05-02T11:55:12.943Z,11.00
2019-05-02T11:57:42.763Z,9.23
2019-05-02T12:00:12.545Z,6.95
2019-05-02T12:02:43.860Z,10.82
2019-05-02T12:05:15.001Z,6.87
2019-05-02T12:07:44.484Z,5.97
2019-05-02T12:10:14.011Z,11.12
2019-05-02T12:12:43.516Z,8.48
2019-05-02T12:15:13.019Z,6.62
2019-05-02T12:17:42.418Z,7.55
2019-05-02T12:20:12.542Z,11.03
2019-05-02T12:22:42.066Z,8.78
2019-05-02T12:25:12.625Z,7.37
2019-05-02T12:27:42.614Z,10.38
2019-05-02T12:30:12.231Z,12.73
2019-05-02T12:32:42.731Z,10.98
2019-05-02T12:35:13.352Z,5.67
2019-05-02T12:37:46.963Z,8.75
2019-05-02T12:40:13.925Z,5.97
2019-05-02T12:42:43.501Z,8.75
2019-05-02T12:45:13.211Z,7.15
2019-05-02T12:47:42.946Z,7.00
2019-05-02T12:50:12.732Z,8.03
2019-05-02T12:52:42.880Z,5.28
2019-05-02T12:55:12.858Z,8.25
2019-05-02T12:57:43.601Z,9.83
2019-05-02T13:00:13.207Z,4.42
2019-05-02T13:02:47.023Z,8.50
2019-05-02T13:05:16.364Z,8.13
2019-05-02T13:07:50.526Z,5.87
2019-05-02T13:10:18.495Z,11.33
2019-05-02T13:12:47.895Z,8.70
2019-05-02T13:15:17.746Z,8.48
2019-05-02T13:17:48.946Z,6.65
2019-05-02T13:20:22.174Z,8.88
2019-05-02T13:22:54.924Z,6.92
2019-05-02T13:25:27.402Z,6.78
2019-05-02T13:27:57.180Z,7.50
2019-05-02T13:30:42.761Z,5.45
2019-05-02T13:33:12.124Z,6.03
2019-05-02T13:35:46.096Z,6.45
2019-05-02T13:38:18.170Z,9.53
2019-05-02T13:40:47.457Z,5.05
2019-05-02T13:43:16.869Z,5.15
2019-05-02T13:45:52.675Z,7.28
2019-05-02T13:48:22.121Z,5.65
2019-05-02T13:50:51.911Z,6.60
2019-05-02T13:54:12.435Z,8.85
2019-05-02T13:56:45.059Z,7.55
2019-05-02T13:59:14.307Z,6.12
2019-05-02T14:01:44.015Z,9.78
2019-05-02T14:04:14.939Z,9.23
2019-05-02T14:06:44.760Z,6.53
2019-05-02T14:09:22.765Z,6.60
2019-05-02T14:12:01.829Z,5.78
2019-05-02T14:14:32.533Z,9.65
2019-05-02T14:17:02.980Z,5.00
2019-05-02T14:19:33.521Z,6.03
2019-05-02T14:22:03.047Z,4.35
2019-05-02T14:24:33.098Z,5.72
2019-05-02T14:27:02.823Z,5.08
2019-05-02T14:29:33.499Z,6.90
2019-05-02T14:32:02.902Z,14.60
2019-05-02T14:34:39.721Z,10.63
2019-05-02T14:37:09.183Z,4.12
2019-05-02T14:39:38.609Z,4.45
2019-05-02T14:42:08.010Z,5.67
2019-05-02T14:45:01.236Z,4.10
2019-05-02T14:47:10.124Z,5.15
2019-05-02T14:49:39.514Z,7.15
2019-05-02T14:52:08.913Z,5.22
2019-05-02T14:54:43.887Z,8.78
2019-05-02T14:57:11.926Z,5.87
2019-05-02T14:59:42.857Z,4.80
2019-05-02T15:02:14.107Z,5.15
2019-05-02T15:04:48.357Z,6.62
2019-05-02T15:07:17.645Z,4.70
2019-05-02T15:09:45.373Z,5.72
2019-05-02T15:12:18.725Z,5.53
2019-05-02T15:14:49.836Z,4.70
2019-05-02T15:17:16.809Z,8.70
2019-05-02T15:19:46.208Z,4.67
2019-05-02T15:22:15.761Z,6.42
2019-05-02T15:24:45.169Z,4.65
2019-05-02T15:27:17.805Z,7.42
2019-05-02T15:29:45.194Z,8.98
2019-05-02T15:32:16.097Z,16.50
2019-05-02T15:34:53.013Z,26.90
2019-05-02T15:37:25.628Z,35.48
